createdAt,value
2019-02-17T00:00:11.418Z,47.47
2019-02-17T00:02:19.410Z,47.53
2019-02-17T00:04:27.168Z,46.40
2019-02-17T00:06:34.871Z,44.70
2019-02-17T00:08:42.600Z,43.63
2019-02-17T00:10:50.209Z,45.70
2019-02-17T00:12:57.937Z,46.00
2019-02-17T00:15:05.935Z,44.70
2019-02-17T00:17:13.678Z,44.30
2019-02-17T00:19:21.323Z,43.67
2019-02-17T00:21:29.195Z,45.27
2019-02-17T00:23:37.020Z,47.23
2019-02-17T00:25:44.691Z,46.63
2019-02-17T00:27:52.529Z,43.83
2019-02-17T00:30:00.322Z,48.63
2019-02-17T00:32:07.985Z,46.83
2019-02-17T00:34:15.761Z,45.47
2019-02-17T00:36:23.564Z,45.03
2019-02-17T00:38:31.478Z,42.67
2019-02-17T00:40:39.272Z,46.13
2019-02-17T00:42:47.343Z,42.37
2019-02-17T00:44:55.195Z,43.77
2019-02-17T00:47:02.887Z,40.83
2019-02-17T00:49:10.652Z,43.83
2019-02-17T00:51:18.303Z,41.83
2019-02-17T00:53:26.042Z,40.30
2019-02-17T00:55:33.818Z,43.47
2019-02-17T00:57:41.470Z,43.10
2019-02-17T00:59:49.148Z,44.43
2019-02-17T01:01:56.862Z,42.80
2019-02-17T01:04:04.687Z,47.60
2019-02-17T01:06:12.486Z,45.10
2019-02-17T01:08:20.245Z,53.53
2019-02-17T01:10:27.918Z,47.30
2019-02-17T01:12:35.692Z,50.03
2019-02-17T01:14:43.651Z,48.87
2019-02-17T01:16:51.526Z,45.67
2019-02-17T01:18:59.216Z,46.17
2019-02-17T01:21:06.831Z,47.13
2019-02-17T01:23:14.493Z,58.30
2019-02-17T01:25:22.300Z,66.67
2019-02-17T01:27:30.065Z,55.00
2019-02-17T01:29:37.693Z,44.90
2019-02-17T01:31:45.394Z,48.37
2019-02-17T01:33:53.105Z,48.27
2019-02-17T01:36:00.922Z,43.23
2019-02-17T01:38:08.516Z,48.10
2019-02-17T01:40:16.026Z,48.50
2019-02-17T01:42:23.865Z,45.90
2019-02-17T01:44:31.628Z,43.93
2019-02-17T01:46:39.350Z,50.73
2019-02-17T01:48:47.022Z,45.47
2019-02-17T01:50:54.854Z,49.33
2019-02-17T01:53:02.301Z,40.43
2019-02-17T01:55:10.154Z,43.20
2019-02-17T01:57:17.698Z,43.83
2019-02-17T01:59:30.548Z,44.07
2019-02-17T02:01:34.974Z,46.60
2019-02-17T02:03:42.624Z,42.80
2019-02-17T02:05:50.222Z,50.50
2019-02-17T02:07:57.840Z,37.40
2019-02-17T02:10:06.148Z,47.43
2019-02-17T02:12:13.924Z,45.20
2019-02-17T02:14:21.554Z,42.33
2019-02-17T02:16:29.333Z,40.57
2019-02-17T02:18:36.989Z,43.87
2019-02-17T02:20:44.720Z,48.97
2019-02-17T02:22:52.384Z,43.17
2019-02-17T02:25:00.221Z,43.53
2019-02-17T02:27:07.906Z,46.73
2019-02-17T02:29:15.567Z,44.93
2019-02-17T02:31:23.426Z,51.73
2019-02-17T02:33:31.167Z,45.63
2019-02-17T02:35:39.187Z,45.57
2019-02-17T02:37:46.927Z,41.23
2019-02-17T02:39:54.628Z,46.30
2019-02-17T02:42:02.499Z,48.07
2019-02-17T02:44:10.246Z,46.97
2019-02-17T02:46:18.050Z,48.63
2019-02-17T02:48:25.984Z,48.50
2019-02-17T02:50:33.724Z,48.77
2019-02-17T02:52:41.437Z,45.03
2019-02-17T02:54:49.167Z,48.23
2019-02-17T02:56:56.887Z,48.07
2019-02-17T02:59:04.684Z,48.17
2019-02-17T03:01:12.752Z,48.53
2019-02-17T03:03:20.533Z,47.50
2019-02-17T03:05:28.051Z,44.20
2019-02-17T03:07:35.623Z,48.83
2019-02-17T03:09:43.210Z,52.43
2019-02-17T03:11:50.931Z,46.10
2019-02-17T03:13:58.660Z,47.93
2019-02-17T03:16:06.519Z,52.97
2019-02-17T03:18:14.137Z,48.57
2019-02-17T03:20:21.496Z,50.03
2019-02-17T03:22:29.222Z,47.03
2019-02-17T03:24:36.846Z,48.50
2019-02-17T03:26:44.686Z,45.07
2019-02-17T03:28:52.322Z,43.90
2019-02-17T03:31:00.085Z,45.63
2019-02-17T03:33:07.882Z,49.10
2019-02-17T03:35:15.708Z,47.50
2019-02-17T03:37:23.081Z,46.60
2019-02-17T03:39:30.623Z,48.40
2019-02-17T03:41:38.472Z,43.70
2019-02-17T03:43:46.388Z,49.47
2019-02-17T03:45:54.079Z,46.77
2019-02-17T03:48:01.855Z,45.70
2019-02-17T03:50:09.531Z,46.33
2019-02-17T03:52:17.317Z,46.50
2019-02-17T03:54:24.967Z,51.60
2019-02-17T03:56:32.649Z,53.40
2019-02-17T03:58:40.329Z,47.97
2019-02-17T04:00:47.960Z,45.23
2019-02-17T04:02:55.617Z,48.10
2019-02-17T04:05:03.507Z,50.53
2019-02-17T04:07:11.027Z,52.43
2019-02-17T04:09:18.715Z,50.10
2019-02-17T04:11:26.557Z,44.47
2019-02-17T04:13:34.485Z,46.87
2019-02-17T04:15:42.117Z,46.40
2019-02-17T04:17:49.782Z,47.40
2019-02-17T04:19:57.505Z,44.10
2019-02-17T04:22:05.160Z,45.70
2019-02-17T04:24:12.854Z,42.90
2019-02-17T04:26:20.393Z,46.60
2019-02-17T04:28:28.183Z,51.27
2019-02-17T04:30:35.783Z,49.17
2019-02-17T04:32:43.475Z,49.50
2019-02-17T04:34:51.219Z,50.30
2019-02-17T04:36:58.832Z,47.50
2019-02-17T04:39:07.687Z,45.13
2019-02-17T04:41:15.484Z,52.73
2019-02-17T04:43:23.305Z,44.33
2019-02-17T04:45:30.884Z,51.60
2019-02-17T04:47:38.552Z,42.67
2019-02-17T04:49:46.364Z,45.43
2019-02-17T04:51:54.099Z,45.37
2019-02-17T04:54:01.732Z,51.07
2019-02-17T04:56:09.429Z,45.57
2019-02-17T04:58:17.005Z,46.23
2019-02-17T05:00:24.643Z,45.30
2019-02-17T05:02:32.249Z,44.43
2019-02-17T05:04:39.983Z,45.47
2019-02-17T05:06:47.867Z,45.33
2019-02-17T05:08:55.530Z,48.80
2019-02-17T05:11:03.071Z,40.90
2019-02-17T05:13:10.751Z,44.43
2019-02-17T05:15:18.494Z,42.83
2019-02-17T05:17:26.204Z,49.40
2019-02-17T05:19:33.872Z,51.30
2019-02-17T05:21:41.453Z,52.10
2019-02-17T05:23:49.135Z,47.43
2019-02-17T05:25:56.587Z,51.10
2019-02-17T05:28:04.212Z,49.33
2019-02-17T05:30:12.119Z,51.17
2019-02-17T05:32:19.617Z,48.90
2019-02-17T05:34:27.356Z,42.37
2019-02-17T05:36:35.110Z,45.47
2019-02-17T05:38:42.786Z,50.00
2019-02-17T05:40:50.434Z,45.40
2019-02-17T05:42:58.259Z,47.20
2019-02-17T05:45:07.433Z,45.03
2019-02-17T05:47:14.944Z,45.40
2019-02-17T05:49:22.610Z,47.93
2019-02-17T05:51:30.361Z,47.03
2019-02-17T05:53:37.917Z,47.70
2019-02-17T05:55:45.618Z,51.03
2019-02-17T05:57:53.293Z,53.10
2019-02-17T06:00:01.001Z,51.57
2019-02-17T06:02:08.695Z,45.00
2019-02-17T06:04:16.361Z,48.97
2019-02-17T06:06:24.103Z,49.87
2019-02-17T06:08:32.275Z,48.60
2019-02-17T06:10:40.066Z,45.93
2019-02-17T06:12:47.850Z,46.47
2019-02-17T06:14:55.744Z,53.30
2019-02-17T06:17:03.571Z,47.47
2019-02-17T06:19:11.286Z,46.73
2019-02-17T06:21:18.960Z,47.77
2019-02-17T06:23:26.686Z,51.00
2019-02-17T06:25:34.539Z,51.80
2019-02-17T06:27:42.308Z,47.40
2019-02-17T06:29:49.968Z,45.57
2019-02-17T06:31:57.637Z,50.87
2019-02-17T06:34:05.329Z,51.20
2019-02-17T06:36:13.139Z,46.83
2019-02-17T06:38:20.989Z,55.43
2019-02-17T06:40:28.711Z,55.23
2019-02-17T06:42:36.447Z,49.60
2019-02-17T06:44:44.156Z,57.63
2019-02-17T06:46:56.228Z,52.77
2019-02-17T06:49:04.025Z,49.40
2019-02-17T06:51:11.893Z,53.57
2019-02-17T06:53:19.590Z,51.63
2019-02-17T06:55:42.061Z,51.43
2019-02-17T06:57:49.767Z,45.53
2019-02-17T07:00:12.236Z,55.00
2019-02-17T07:02:19.971Z,54.47
2019-02-17T07:04:49.757Z,59.53
2019-02-17T07:07:01.353Z,57.07
2019-02-17T07:09:09.634Z,57.27
2019-02-17T07:11:17.626Z,62.07
2019-02-17T07:13:25.270Z,62.57
2019-02-17T07:15:32.976Z,63.97
2019-02-17T07:17:40.774Z,55.53
2019-02-17T07:19:48.484Z,54.37
2019-02-17T07:21:56.402Z,50.17
2019-02-17T07:24:04.256Z,55.70
2019-02-17T07:26:12.295Z,54.80
2019-02-17T07:28:19.901Z,52.13
2019-02-17T07:30:27.635Z,55.20
2019-02-17T07:32:35.510Z,58.47
2019-02-17T07:34:43.371Z,53.43
2019-02-17T07:36:51.080Z,54.30
2019-02-17T07:38:58.743Z,53.87
2019-02-17T07:41:06.572Z,55.07
2019-02-17T07:43:14.404Z,61.53
2019-02-17T07:45:22.339Z,51.70
2019-02-17T07:47:30.155Z,49.73
2019-02-17T07:49:37.944Z,56.07
2019-02-17T07:51:45.669Z,53.57
2019-02-17T07:53:53.499Z,63.73
2019-02-17T07:56:01.172Z,63.00
2019-02-17T07:58:08.917Z,58.80
2019-02-17T08:00:16.814Z,51.40
2019-02-17T08:02:24.441Z,51.03
2019-02-17T08:04:32.138Z,55.17
2019-02-17T08:06:39.915Z,57.80
2019-02-17T08:08:47.739Z,66.00
2019-02-17T08:11:03.669Z,64.67
2019-02-17T08:13:06.120Z,60.63
2019-02-17T08:15:13.880Z,82.63
2019-02-17T08:17:21.721Z,73.90
2019-02-17T08:19:29.733Z,67.37
2019-02-17T08:21:37.651Z,76.53
2019-02-17T08:23:45.444Z,66.77
2019-02-17T08:25:53.233Z,59.37
2019-02-17T08:28:01.173Z,57.33
2019-02-17T08:30:10.410Z,61.73
2019-02-17T08:32:18.252Z,57.37
2019-02-17T08:34:25.963Z,56.03
2019-02-17T08:36:34.194Z,59.57
2019-02-17T08:38:42.284Z,54.03
2019-02-17T08:40:50.028Z,50.17
2019-02-17T08:42:57.998Z,57.87
2019-02-17T08:45:06.137Z,60.10
2019-02-17T08:47:13.933Z,64.20
2019-02-17T08:49:21.694Z,53.43
2019-02-17T08:51:29.349Z,70.10
2019-02-17T08:53:37.090Z,89.67
2019-02-17T08:55:44.918Z,113.43
2019-02-17T08:57:52.749Z,117.33
2019-02-17T09:00:00.557Z,87.57
2019-02-17T09:02:08.413Z,99.50
2019-02-17T09:04:16.404Z,79.23
2019-02-17T09:06:24.243Z,76.87
2019-02-17T09:08:32.010Z,85.80
2019-02-17T09:10:40.102Z,74.63
2019-02-17T09:12:47.891Z,77.77
2019-02-17T09:14:55.747Z,72.47
2019-02-17T09:17:03.665Z,67.83
2019-02-17T09:19:11.785Z,68.03
2019-02-17T09:21:19.671Z,63.20
2019-02-17T09:23:27.429Z,67.70
2019-02-17T09:25:35.228Z,93.00
2019-02-17T09:27:43.299Z,75.97
2019-02-17T09:29:51.103Z,84.53
2019-02-17T09:31:59.524Z,65.30
2019-02-17T09:34:07.533Z,62.37
2019-02-17T09:36:15.201Z,60.10
2019-02-17T09:38:23.123Z,56.57
2019-02-17T09:40:30.838Z,59.17
2019-02-17T09:42:38.949Z,57.63
2019-02-17T09:44:46.725Z,54.50
2019-02-17T09:46:54.515Z,62.77
2019-02-17T09:49:02.660Z,61.87
2019-02-17T09:51:10.455Z,63.33
2019-02-17T09:53:19.020Z,56.93
2019-02-17T09:55:27.030Z,69.60
2019-02-17T09:57:35.220Z,68.53
2019-02-17T09:59:43.195Z,55.67
2019-02-17T10:01:51.560Z,55.97
2019-02-17T10:03:59.272Z,63.33
2019-02-17T10:06:07.097Z,62.57
2019-02-17T10:08:15.067Z,61.53
2019-02-17T10:10:24.033Z,59.77
2019-02-17T10:12:32.337Z,70.83
2019-02-17T10:14:40.720Z,61.53
2019-02-17T10:16:49.691Z,60.10
2019-02-17T10:18:57.604Z,73.53
2019-02-17T10:21:05.334Z,64.53
2019-02-17T10:23:13.697Z,68.07
2019-02-17T10:25:22.300Z,64.33
2019-02-17T10:27:30.229Z,65.90
2019-02-17T10:29:37.948Z,75.00
2019-02-17T10:31:45.653Z,68.63
2019-02-17T10:33:53.630Z,63.77
2019-02-17T10:36:01.744Z,68.83
2019-02-17T10:38:09.590Z,62.23
2019-02-17T10:40:17.639Z,67.33
2019-02-17T10:42:25.631Z,115.93
2019-02-17T10:44:33.517Z,158.53
2019-02-17T10:46:41.477Z,123.73
2019-02-17T10:48:49.049Z,134.33
2019-02-17T10:50:56.975Z,91.60
2019-02-17T10:53:05.426Z,76.43
2019-02-17T10:55:14.158Z,75.23
2019-02-17T10:57:21.861Z,75.30
2019-02-17T10:59:29.438Z,67.40
2019-02-17T11:01:37.679Z,151.07
2019-02-17T11:04:11.994Z,104.53
2019-02-17T11:06:19.687Z,102.07
2019-02-17T11:08:27.378Z,82.23
2019-02-17T11:10:35.213Z,65.27
2019-02-17T11:12:43.251Z,80.73
2019-02-17T11:14:51.097Z,33.80
2019-02-17T11:16:59.111Z,35.07
2019-02-17T11:19:07.120Z,48.73
2019-02-17T11:21:15.126Z,29.90
2019-02-17T11:23:22.950Z,31.97
2019-02-17T11:25:31.089Z,27.90
2019-02-17T11:27:39.145Z,31.90
2019-02-17T11:29:46.780Z,106.77
2019-02-17T11:31:54.860Z,36.23
2019-02-17T11:34:02.867Z,37.57
2019-02-17T11:36:10.944Z,37.23
2019-02-17T11:38:18.856Z,34.73
2019-02-17T11:40:26.900Z,30.43
2019-02-17T11:42:34.839Z,34.57
2019-02-17T11:44:42.609Z,81.63
2019-02-17T11:46:50.636Z,42.63
2019-02-17T11:48:58.901Z,34.17
2019-02-17T11:51:07.611Z,33.17
2019-02-17T11:53:15.822Z,26.60
2019-02-17T11:55:23.927Z,32.33
2019-02-17T11:57:31.862Z,33.30
2019-02-17T11:59:40.220Z,27.53
2019-02-17T12:01:48.369Z,29.00
2019-02-17T12:03:57.238Z,27.10
2019-02-17T12:06:05.193Z,42.07
2019-02-17T12:08:13.205Z,28.77
2019-02-17T12:10:21.193Z,29.27
2019-02-17T12:12:29.109Z,24.50
2019-02-17T12:14:37.251Z,23.40
2019-02-17T12:16:45.179Z,31.97
2019-02-17T12:18:53.040Z,27.60
2019-02-17T12:21:19.700Z,39.50
2019-02-17T12:23:43.145Z,39.80
2019-02-17T12:26:09.852Z,43.83
2019-02-17T12:28:48.617Z,60.47
2019-02-17T12:30:56.451Z,51.57
2019-02-17T12:33:04.187Z,58.87
2019-02-17T12:35:12.145Z,75.83
2019-02-17T12:37:19.920Z,35.13
2019-02-17T12:39:27.628Z,79.93
2019-02-17T12:41:35.707Z,37.10
2019-02-17T12:43:43.969Z,34.33
2019-02-17T12:45:51.939Z,32.23
2019-02-17T12:47:59.706Z,31.73
2019-02-17T12:50:08.420Z,38.37
2019-02-17T12:52:16.289Z,34.90
2019-02-17T12:54:29.111Z,35.77
2019-02-17T12:56:33.574Z,36.63
2019-02-17T12:58:41.370Z,37.80
2019-02-17T13:00:49.121Z,38.93
2019-02-17T13:02:56.906Z,39.13
2019-02-17T13:05:05.058Z,36.83
2019-02-17T13:07:12.708Z,39.63
2019-02-17T13:09:20.659Z,40.80
2019-02-17T13:11:28.474Z,39.73
2019-02-17T13:13:36.094Z,34.87
2019-02-17T13:15:43.813Z,37.87
2019-02-17T13:17:53.061Z,34.63
2019-02-17T13:20:00.741Z,36.53
2019-02-17T13:22:08.426Z,28.43
2019-02-17T13:24:16.289Z,44.53
2019-02-17T13:26:24.254Z,45.37
2019-02-17T13:28:31.937Z,39.40
2019-02-17T13:30:39.592Z,68.47
2019-02-17T13:32:47.770Z,70.83
2019-02-17T13:34:55.502Z,63.50
2019-02-17T13:37:03.286Z,53.10
2019-02-17T13:39:11.227Z,47.13
2019-02-17T13:41:18.912Z,50.77
2019-02-17T13:43:26.725Z,52.27
2019-02-17T13:45:34.560Z,42.80
2019-02-17T13:47:42.488Z,48.87
2019-02-17T13:49:50.412Z,52.37
2019-02-17T13:51:58.207Z,44.67
2019-02-17T13:54:06.171Z,42.70
2019-02-17T13:56:14.469Z,44.30
2019-02-17T13:58:22.130Z,40.90
2019-02-17T14:00:29.878Z,43.37
2019-02-17T14:02:37.691Z,47.37
2019-02-17T14:04:45.618Z,49.00
2019-02-17T14:06:53.456Z,50.00
2019-02-17T14:09:01.395Z,44.67
2019-02-17T14:11:09.439Z,45.37
2019-02-17T14:13:17.274Z,51.47
2019-02-17T14:15:25.431Z,45.40
2019-02-17T14:17:33.387Z,45.23
2019-02-17T14:19:41.536Z,47.23
2019-02-17T14:21:49.417Z,44.97
2019-02-17T14:23:57.412Z,54.83
2019-02-17T14:26:05.320Z,41.77
2019-02-17T14:28:12.999Z,45.00
2019-02-17T14:30:21.281Z,42.63
2019-02-17T14:32:29.156Z,47.30
2019-02-17T14:34:37.672Z,43.00
2019-02-17T14:36:45.799Z,42.73
2019-02-17T14:38:54.020Z,42.43
2019-02-17T14:41:02.156Z,53.33
2019-02-17T14:43:10.342Z,43.33
2019-02-17T14:45:18.541Z,120.27
2019-02-17T14:47:26.889Z,134.37
2019-02-17T14:49:35.712Z,123.00
2019-02-17T14:51:43.687Z,131.17
2019-02-17T14:53:51.448Z,57.40
2019-02-17T14:55:59.543Z,52.40
2019-02-17T14:58:07.391Z,69.20
2019-02-17T15:00:15.731Z,91.40
2019-02-17T15:02:23.378Z,111.17
2019-02-17T15:04:31.825Z,65.70
2019-02-17T15:06:39.869Z,61.00
2019-02-17T15:08:48.051Z,89.00
2019-02-17T15:10:56.378Z,79.00
2019-02-17T15:13:04.465Z,63.23
2019-02-17T15:15:12.614Z,54.00
2019-02-17T15:17:20.349Z,54.73
2019-02-17T15:19:29.074Z,54.23
2019-02-17T15:21:37.402Z,59.83
2019-02-17T15:23:45.723Z,54.73
2019-02-17T15:25:54.215Z,52.97
2019-02-17T15:28:04.983Z,47.27
2019-02-17T15:30:14.563Z,48.37
2019-02-17T15:32:22.610Z,55.50
2019-02-17T15:34:30.696Z,50.43
2019-02-17T15:36:38.767Z,61.57
2019-02-17T15:38:46.969Z,41.30
2019-02-17T15:40:54.940Z,40.27
2019-02-17T15:43:02.968Z,39.40
2019-02-17T15:45:12.048Z,46.33
2019-02-17T15:47:19.902Z,48.20
2019-02-17T15:49:28.165Z,43.00
2019-02-17T15:51:36.238Z,39.20
2019-02-17T15:53:44.773Z,36.90
2019-02-17T15:55:52.863Z,56.27
2019-02-17T15:58:01.187Z,59.70
2019-02-17T16:00:12.679Z,55.70
2019-02-17T16:02:21.196Z,44.13
2019-02-17T16:04:29.711Z,35.07
2019-02-17T16:06:37.630Z,39.57
2019-02-17T16:08:45.774Z,40.53
2019-02-17T16:10:53.847Z,43.87
2019-02-17T16:13:01.886Z,43.17
2019-02-17T16:15:12.748Z,45.07
2019-02-17T16:17:20.881Z,49.07
2019-02-17T16:19:28.616Z,44.33
2019-02-17T16:21:36.627Z,55.57
2019-02-17T16:23:44.561Z,54.63
2019-02-17T16:25:52.440Z,47.43
2019-02-17T16:28:00.479Z,52.30
2019-02-17T16:30:12.165Z,51.13
2019-02-17T16:32:21.743Z,51.73
2019-02-17T16:34:38.037Z,42.33
2019-02-17T16:36:39.215Z,43.93
2019-02-17T16:38:47.183Z,43.27
2019-02-17T16:40:55.057Z,53.43
2019-02-17T16:43:02.917Z,248.87
2019-02-17T16:45:12.707Z,398.93
2019-02-17T16:47:21.855Z,301.50
2019-02-17T16:49:29.726Z,161.33
2019-02-17T16:51:37.983Z,132.80
2019-02-17T16:53:45.769Z,79.60
2019-02-17T16:55:53.715Z,80.77
2019-02-17T16:58:01.678Z,64.03
2019-02-17T17:00:12.334Z,463.47
2019-02-17T17:02:20.295Z,462.90
2019-02-17T17:04:28.489Z,359.57
2019-02-17T17:06:36.605Z,191.77
2019-02-17T17:08:44.679Z,107.63
2019-02-17T17:10:53.106Z,102.13
2019-02-17T17:13:01.952Z,128.93
2019-02-17T17:15:10.360Z,75.47
2019-02-17T17:17:18.327Z,94.70
2019-02-17T17:19:26.408Z,105.90
2019-02-17T17:21:34.490Z,87.63
2019-02-17T17:23:42.568Z,108.07
2019-02-17T17:25:50.602Z,106.77
2019-02-17T17:27:59.592Z,125.07
2019-02-17T17:30:08.264Z,120.23
2019-02-17T17:32:16.924Z,107.90
2019-02-17T17:34:24.970Z,95.23
2019-02-17T17:36:33.576Z,89.63
2019-02-17T17:38:41.742Z,79.77
2019-02-17T17:40:50.088Z,80.07
2019-02-17T17:42:58.100Z,103.43
2019-02-17T17:45:06.996Z,83.50
2019-02-17T17:47:16.343Z,73.67
2019-02-17T17:49:24.998Z,68.37
2019-02-17T17:51:34.419Z,55.53
2019-02-17T17:53:43.290Z,56.83
2019-02-17T17:55:51.433Z,69.87
2019-02-17T17:57:59.264Z,63.93
2019-02-17T18:00:08.712Z,61.83
2019-02-17T18:02:16.317Z,61.17
2019-02-17T18:04:24.430Z,65.77
2019-02-17T18:06:33.010Z,66.17
2019-02-17T18:08:41.338Z,91.50
2019-02-17T18:10:49.342Z,86.60
2019-02-17T18:12:57.738Z,100.97
2019-02-17T18:15:06.364Z,82.20
2019-02-17T18:17:14.368Z,78.77
2019-02-17T18:19:22.373Z,94.73
2019-02-17T18:21:30.452Z,101.90
2019-02-17T18:23:38.447Z,107.53
2019-02-17T18:25:46.468Z,105.87
2019-02-17T18:27:54.557Z,90.90
2019-02-17T18:30:02.957Z,100.33
2019-02-17T18:32:11.278Z,107.33
2019-02-17T18:34:20.191Z,66.70
2019-02-17T18:36:28.165Z,62.80
2019-02-17T18:38:36.367Z,72.73
2019-02-17T18:40:47.204Z,72.60
2019-02-17T18:42:53.927Z,77.20
2019-02-17T18:45:02.424Z,75.87
2019-02-17T18:47:10.938Z,103.43
2019-02-17T18:49:18.835Z,91.83
2019-02-17T18:51:26.792Z,91.50
2019-02-17T18:53:35.087Z,101.50
2019-02-17T18:55:43.691Z,104.53
2019-02-17T18:57:51.480Z,131.33
2019-02-17T18:59:59.239Z,117.57
2019-02-17T19:02:07.213Z,89.10
2019-02-17T19:04:15.205Z,97.00
2019-02-17T19:06:23.410Z,102.90
2019-02-17T19:08:33.699Z,104.27
2019-02-17T19:10:41.850Z,124.57
2019-02-17T19:12:50.052Z,120.00
2019-02-17T19:14:57.804Z,120.23
2019-02-17T19:17:06.730Z,109.27
2019-02-17T19:19:15.060Z,105.23
2019-02-17T19:21:23.771Z,110.07
2019-02-17T19:23:32.056Z,105.40
2019-02-17T19:25:40.050Z,110.83
2019-02-17T19:27:48.661Z,99.57
2019-02-17T19:29:56.642Z,91.43
2019-02-17T19:32:04.689Z,93.33
2019-02-17T19:34:12.850Z,92.60
2019-02-17T19:36:20.940Z,91.53
2019-02-17T19:38:29.195Z,78.80
2019-02-17T19:40:37.148Z,87.80
2019-02-17T19:42:45.104Z,109.33
2019-02-17T19:44:53.164Z,94.27
2019-02-17T19:47:02.074Z,84.57
2019-02-17T19:49:10.111Z,134.83
2019-02-17T19:51:18.292Z,88.97
2019-02-17T19:53:26.324Z,77.93
2019-02-17T19:55:34.807Z,95.90
2019-02-17T19:57:43.356Z,109.17
2019-02-17T19:59:51.045Z,87.97
2019-02-17T20:01:58.834Z,73.97
2019-02-17T20:04:31.851Z,66.07
2019-02-17T20:06:39.570Z,60.77
2019-02-17T20:08:48.008Z,68.97
2019-02-17T20:10:56.724Z,79.87
2019-02-17T20:13:05.097Z,88.27
2019-02-17T20:15:12.788Z,80.30
2019-02-17T20:17:20.678Z,76.93
2019-02-17T20:19:28.543Z,63.50
2019-02-17T20:21:36.249Z,64.93
2019-02-17T20:23:44.104Z,69.77
2019-02-17T20:25:52.130Z,66.43
2019-02-17T20:28:00.267Z,65.33
2019-02-17T20:30:08.714Z,71.93
2019-02-17T20:32:16.662Z,66.07
2019-02-17T20:34:25.522Z,81.73
2019-02-17T20:36:33.815Z,77.93
2019-02-17T20:38:41.912Z,129.97
2019-02-17T20:40:49.823Z,84.33
2019-02-17T20:42:57.324Z,205.23
2019-02-17T20:45:05.767Z,106.00
2019-02-17T20:47:13.872Z,100.60
2019-02-17T20:49:21.813Z,101.20
2019-02-17T20:51:29.672Z,102.07
2019-02-17T20:53:37.466Z,102.90
2019-02-17T20:55:45.479Z,95.43
2019-02-17T20:57:53.273Z,90.87
2019-02-17T21:00:01.251Z,92.30
2019-02-17T21:02:09.123Z,84.17
2019-02-17T21:04:17.290Z,89.50
2019-02-17T21:06:25.652Z,90.03
2019-02-17T21:08:33.501Z,106.80
2019-02-17T21:10:41.394Z,91.37
2019-02-17T21:12:49.524Z,97.17
2019-02-17T21:14:57.156Z,90.43
2019-02-17T21:17:06.893Z,93.80
2019-02-17T21:19:14.716Z,89.97
2019-02-17T21:21:23.143Z,92.27
2019-02-17T21:23:31.155Z,110.70
2019-02-17T21:25:39.314Z,121.87
2019-02-17T21:27:47.318Z,106.57
2019-02-17T21:29:55.217Z,110.87
2019-02-17T21:32:03.063Z,145.00
2019-02-17T21:34:11.023Z,143.40
2019-02-17T21:36:23.229Z,129.70
2019-02-17T21:38:28.731Z,107.60
2019-02-17T21:40:36.649Z,123.13
2019-02-17T21:42:44.951Z,86.87
2019-02-17T21:44:52.766Z,77.40
2019-02-17T21:47:00.528Z,66.57
2019-02-17T21:49:08.621Z,73.40
2019-02-17T21:51:16.774Z,65.13
2019-02-17T21:53:24.696Z,64.27
2019-02-17T21:55:32.789Z,63.13
2019-02-17T21:57:42.226Z,59.13
2019-02-17T21:59:50.120Z,58.70
2019-02-17T22:01:58.013Z,56.77
2019-02-17T22:04:06.045Z,54.33
2019-02-17T22:06:14.011Z,58.40
2019-02-17T22:08:21.731Z,53.33
2019-02-17T22:10:29.298Z,58.40
2019-02-17T22:12:37.302Z,55.70
2019-02-17T22:14:45.115Z,61.63
2019-02-17T22:16:52.933Z,59.20
2019-02-17T22:19:01.189Z,57.73
2019-02-17T22:21:08.916Z,61.97
2019-02-17T22:23:16.559Z,61.47
2019-02-17T22:25:24.511Z,68.93
2019-02-17T22:27:32.391Z,60.47
2019-02-17T22:29:40.076Z,65.30
2019-02-17T22:31:48.405Z,65.60
2019-02-17T22:33:56.107Z,64.80
2019-02-17T22:36:03.845Z,72.70
2019-02-17T22:38:11.603Z,69.30
2019-02-17T22:40:19.370Z,72.03
2019-02-17T22:42:27.137Z,76.13
2019-02-17T22:44:34.943Z,71.07
2019-02-17T22:46:42.731Z,76.83
2019-02-17T22:48:50.497Z,62.10
2019-02-17T22:50:58.345Z,75.77
2019-02-17T22:53:05.999Z,64.07
2019-02-17T22:55:14.092Z,67.30
2019-02-17T22:57:22.080Z,63.57
2019-02-17T22:59:29.786Z,73.37
2019-02-17T23:01:37.639Z,72.33
2019-02-17T23:03:45.478Z,79.63
2019-02-17T23:05:53.279Z,86.87
2019-02-17T23:08:01.000Z,81.90
2019-02-17T23:10:09.187Z,81.70
2019-02-17T23:12:17.504Z,69.87
2019-02-17T23:14:25.227Z,71.60
2019-02-17T23:16:32.763Z,72.53
2019-02-17T23:18:40.428Z,82.83
2019-02-17T23:20:48.095Z,89.00
2019-02-17T23:22:55.757Z,215.10
2019-02-17T23:25:05.202Z,133.87
2019-02-17T23:27:13.239Z,84.57
2019-02-17T23:29:21.072Z,93.80
2019-02-17T23:31:28.872Z,146.37
2019-02-17T23:33:36.685Z,145.63
2019-02-17T23:35:44.526Z,119.97
2019-02-17T23:37:52.251Z,124.20
2019-02-17T23:40:00.090Z,115.83
2019-02-17T23:42:07.967Z,224.87
2019-02-17T23:44:15.705Z,136.07
2019-02-17T23:46:23.486Z,108.50
2019-02-17T23:48:31.209Z,80.93
2019-02-17T23:50:38.919Z,79.73
2019-02-17T23:52:46.685Z,99.27
2019-02-17T23:54:54.357Z,82.63
2019-02-17T23:57:01.836Z,86.40
2019-02-17T23:59:09.743Z,104.27
